»·PEaware :: N172TT KVCV-KVNY

N172TT :: KVCV-KVNY

FLIGHT INFORMATION

Flight Status: Arrived
Operator: Privately registered:
United States
More flights under this callsign
Pilot: Thomas T. (19955)
Aircraft: CESSNA 172 SKYHAWK
(C172)
More flights by this aircraft type
Origin: KVCV Socal Logistics
United States
Destination: KVNY Van Nuys
United States
More flights between these airports :: More routes between these airports
Route: +KVCV ETHER PMD LANGE KVNY
File this flight plan on PilotEdge
Remarks: TRAING FLIGHT
Altitude:
(Current/Filed)
7,000ft
Speed:
(Current/Filed)
118kts
Departed: 05-Oct-18 02:25 PM
Arrived: 05-Oct-18 03:10 PM
Distance/Time
Traveled:
60nm/0:45
Distance/Time
To Go:
Arrived

Flight Plot

Page will automatically refresh every two minutes.

Flight plan parsing failed; only flown route is shown


Map Options




Map Legend


Flown Route
Filed Route
Departure Airport
Arrival Airport
Navaid (VOR, NDB)
Fix

Horizontal Profiles

Position Reports

Time Latitude Longitude Heading Altitude Ground
Speed
05-Oct-18 14:09 34.584420 -117.381284 314 2876ft 0kts
05-Oct-18 14:10 34.584420 -117.381284 314 2876ft 0kts
05-Oct-18 14:11 34.584420 -117.381284 314 2876ft 0kts
05-Oct-18 14:12 34.584420 -117.381284 314 2876ft 0kts
05-Oct-18 14:13 34.584420 -117.381284 314 2876ft 0kts
05-Oct-18 14:14 34.584420 -117.381284 314 2876ft 0kts
05-Oct-18 14:15 34.584420 -117.381284 314 2876ft 0kts
05-Oct-18 14:16 34.584420 -117.381284 314 2876ft 0kts
05-Oct-18 14:17 34.584420 -117.381284 314 2876ft 0kts
05-Oct-18 14:18 34.584420 -117.381284 314 2876ft 0kts
05-Oct-18 14:19 34.584421 -117.381286 314 2876ft 0kts
05-Oct-18 14:20 34.587896 -117.378748 42 2872ft 21kts
05-Oct-18 14:21 34.592652 -117.373101 46 2862ft 25kts
05-Oct-18 14:22 34.594125 -117.367790 10 2854ft 15kts
05-Oct-18 14:23 34.599138 -117.366595 4 2843ft 0kts
05-Oct-18 14:24 34.599138 -117.366595 4 2843ft 0kts
05-Oct-18 14:25 34.599138 -117.366595 4 2843ft 0kts
05-Oct-18 14:26 34.600229 -117.366901 222 2842ft 0kts
05-Oct-18 14:27 34.593815 -117.375153 229 3054ft 75kts
05-Oct-18 14:28 34.582102 -117.406463 274 3756ft 103kts
05-Oct-18 14:29 34.583334 -117.434369 274 4334ft 96kts
05-Oct-18 14:30 34.584460 -117.465917 274 5028ft 91kts
05-Oct-18 14:31 34.585244 -117.496172 274 5725ft 87kts
05-Oct-18 14:32 34.585964 -117.528218 274 6138ft 104kts
05-Oct-18 14:33 34.586774 -117.562761 275 6634ft 100kts
05-Oct-18 14:34 34.587282 -117.595472 275 7205ft 93kts
05-Oct-18 14:35 34.590225 -117.625419 282 7797ft 86kts
05-Oct-18 14:36 34.593624 -117.656667 281 8029ft 110kts
05-Oct-18 14:37 34.597596 -117.695345 281 8029ft 115kts
05-Oct-18 14:38 34.601264 -117.732349 281 8024ft 108kts
05-Oct-18 14:39 34.604780 -117.768493 281 8020ft 107kts
05-Oct-18 14:40 34.608248 -117.804424 281 8017ft 107kts
05-Oct-18 14:41 34.611715 -117.840488 282 8014ft 107kts
05-Oct-18 14:42 34.615143 -117.876260 282 8012ft 107kts
05-Oct-18 14:43 34.618585 -117.912319 282 8009ft 107kts
05-Oct-18 14:44 34.622008 -117.948287 282 8006ft 108kts
05-Oct-18 14:45 34.625433 -117.984396 282 8003ft 108kts
05-Oct-18 14:46 34.628852 -118.020552 282 8001ft 108kts
05-Oct-18 14:47 34.632255 -118.056870 279 7998ft 109kts
05-Oct-18 14:48 34.614716 -118.092893 236 7529ft 131kts
05-Oct-18 14:49 34.592810 -118.128451 235 7029ft 132kts
05-Oct-18 14:50 34.570330 -118.163508 235 6531ft 132kts
05-Oct-18 14:51 34.548268 -118.198741 235 6043ft 131kts
05-Oct-18 14:52 34.528171 -118.230843 235 6030ft 113kts
05-Oct-18 14:53 34.509552 -118.260601 235 6030ft 110kts
05-Oct-18 14:54 34.502144 -118.293530 279 6027ft 104kts
05-Oct-18 14:55 34.503879 -118.328439 279 6028ft 103kts
05-Oct-18 14:56 34.505667 -118.363311 279 6030ft 104kts
05-Oct-18 14:57 34.507645 -118.399025 279 6035ft 108kts
05-Oct-18 14:58 34.509886 -118.435860 279 6039ft 110kts
05-Oct-18 14:59 34.512336 -118.473224 279 6043ft 110kts
05-Oct-18 15:00 34.504648 -118.502235 200 5957ft 102kts
05-Oct-18 15:01 34.476340 -118.514586 182 5497ft 111kts
05-Oct-18 15:02 34.446027 -118.513520 171 5029ft 107kts
05-Oct-18 15:03 34.418970 -118.511108 165 4962ft 98kts
05-Oct-18 15:04 34.390210 -118.507437 170 4973ft 105kts
05-Oct-18 15:05 34.360238 -118.505369 170 4620ft 115kts
05-Oct-18 15:06 34.328595 -118.501300 172 3768ft 110kts
05-Oct-18 15:07 34.300022 -118.499083 165 2997ft 97kts
05-Oct-18 15:08 34.274460 -118.496785 180 2366ft 93kts
05-Oct-18 15:09 34.249320 -118.494393 166 1752ft 82kts
05-Oct-18 15:10 34.231605 -118.492632 170 1249ft 59kts
05-Oct-18 15:11 34.215367 -118.490884 173 849ft 53kts
05-Oct-18 15:12 34.210087 -118.491522 248 806ft 12kts
05-Oct-18 15:13 34.209793 -118.491867 76 806ft 0kts

Navigation Log

Ident Type
Flight plan parsing failed, navigation log unavailable